Record high temperature 44.9°C Record low temperature -0.3°C Record high gust 87.3 km/h Record high average 77.7 km/h Record daily rain 383.8 mm Record low windchill -5.8°C Record high barometer 1043.6 hPa Record low barometer 978.0 hPa
Daily high pressure 1027.8 mb Daily low pressure 1022.8 mb Daily low windchill 1.3°C Daily high heat index 16.2°C Daily high gust speed 20.4 kmh SSW Daily high average speed 11.1 kmh S
Estación de MeteoMurcia.com -------- Murcia-Puente Tocinos
Ultima grabación a: 19:30 Data: 13 December 2017, time of next update: 19:40
Tiempo actualClear/Night Temperatura actual12.4°C (54.3°F), Temperatura aparente 11.5°C
Temperatura máxima (desde medianoche)16.2°C at: 16:44 Temperatura mínima (desde medianoche)5.0°C at: 08:07
Velocidad media del viento (diez minutos)0.0 kmh (0.0 kts) Dirección del viento (diez minutos)S (180°)
Temperatura aparente 12.4°C ráfagas maxima (última hora)10.4 kmh (5.6 kts) at: 18:31
ráfagas maxima (desde medianoche)20.4 kmh (11.0 kts) at: 10:38 Maximo media de un minuto (desde medianoche)11.1 kmh (6.0 kts) at: 10:38
Lluvia (última hora)0.0 mm Lluvia (desde medianoche)0.0 mm (0.00 in.)---
Lluvia Este mes 2.0 mm (0.08 in.) Lluvia Hasta la fecha este año213.1 mm (8.39 in.)
Lluvia máxima por minuto (última hora)0.0 mm/min Lluvia maxima por hora (últimas 6 horas)0.0 mm/hora
Lluvia de ayer 0.0 mm Punto de rocío 1.1°C (Wet Bulb :7.6°C )
Humedad 46 %, Humidex 10.5°C Barómetro corregido a msl1023.9 mb
cambio de presión0.0 mb (última hora) Tendencia (últimas 1 hora)ESTACIONARIO
cambio de presión (últimas 12 horas)-2.2 mb cambio de presión (últimas 6 horas)-1.9 mb
Current Temp. Interna 19.3°C
Current Hum. Interna 36%


Última imagen cámara web


Weather report/warning/Metars

Alicante / El Altet, Spain (LEAL) 38-17N 000-33W 31M
Dec 13, 2017 - 01:00 PM EST / 2017.12.13 1800 UTC
Wind: from the SW (230 degrees) at 7 MPH (6 KT) (direction variable):0
Visibility: greater than 7 mile(s):0
Temperature: 53 F (12 C)
Dew Point: 30 F (-1 C)
Relative Humidity: 40%
Pressure (altimeter): 30.27 in. Hg (1025 hPa)
ob: LEAL 131800Z 23006KT 190V260 CAVOK 12/M01 Q1025 NOSIG
cycle: 18
Murcia / San Javier, Spain (LELC) 37-47N 000-48W 3M
Dec 13, 2017 - 01:00 PM EST / 2017.12.13 1800 UTC
Wind: from the WNW (290 degrees) at 6 MPH (5 KT):0
Visibility: greater than 7 mile(s):0
Temperature: 50 F (10 C)
Dew Point: 39 F (4 C)
Relative Humidity: 66%
Pressure (altimeter): 30.30 in. Hg (1026 hPa)
ob: LELC 131800Z 29005KT CAVOK 10/04 Q1026 NOSIG
cycle: 18
Murcia / Alcantarilla, Spain (LERI) 37-57N 001-14W 75M
Dec 13, 2017 - 01:00 PM EST / 2017.12.13 1800 UTC
Wind: from the SW (230 degrees) at 6 MPH (5 KT):0
Visibility: greater than 7 mile(s):0
Temperature: 51 F (11 C)
Dew Point: 35 F (2 C)
Relative Humidity: 53%
Pressure (altimeter): 30.27 in. Hg (1025 hPa)
ob: LERI 131800Z 23005KT CAVOK 11/02 Q1025 NOSIG
cycle: 18
Gerona / Costa Brava, Spain (LEGE) 41-54N 002-46E 129M
Dec 13, 2017 - 01:00 PM EST / 2017.12.13 1800 UTC
Wind: Calm:0
Visibility: greater than 7 mile(s):0
Sky conditions: mostly clear
Temperature: 44 F (7 C)
Dew Point: 32 F (0 C)
Relative Humidity: 60%
Pressure (altimeter): 30.09 in. Hg (1019 hPa)
ob: LEGE 131800Z 00000KT 9999 FEW060 07/00 Q1019
cycle: 18
Madri-Colmenar, Spain (LECV) 40-39N 003-44W
Dec 13, 2017 - 01:00 PM EST / 2017.12.13 1800 UTC
Wind: from the SE (130 degrees) at 5 MPH (4 KT):0
Visibility: greater than 7 mile(s):0
Sky conditions: mostly clear
Temperature: 39 F (4 C)
Dew Point: 33 F (1 C)
Relative Humidity: 80%
Pressure (altimeter): 30.24 in. Hg (1024 hPa)
ob: LECV 131800Z 13004KT 9999 FEW030 04/01 Q1024
cycle: 18
Asturias / Aviles, Spain (LEAS) 43-33N 006-02W 130M
Dec 13, 2017 - 01:00 PM EST / 2017.12.13 1800 UTC
Wind: from the WSW (250 degrees) at 14 MPH (12 KT) (direction variable):0
Visibility: greater than 7 mile(s):0
Sky conditions: mostly cloudy
Temperature: 60 F (16 C)
Dew Point: 51 F (11 C)
Relative Humidity: 72%
Pressure (altimeter): 30.06 in. Hg (1018 hPa)
ob: LEAS 131800Z 25012KT 210V270 9999 BKN035 16/11 Q1018 NOSIG
cycle: 18
Almeria / Aeropuerto, Spain (LEAM) 36-51N 002-23W 21M
Dec 13, 2017 - 01:00 PM EST / 2017.12.13 1800 UTC
Wind: from the WSW (240 degrees) at 8 MPH (7 KT):0
Visibility: greater than 7 mile(s):0
Temperature: 55 F (13 C)
Dew Point: 46 F (8 C)
Relative Humidity: 71%
Pressure (altimeter): 30.30 in. Hg (1026 hPa)
ob: LEAM 131800Z 24007KT CAVOK 13/08 Q1026
cycle: 18
Pamplona / Noain, Spain (LEPP) 42-46N 001-38W 453M
Dec 13, 2017 - 01:00 PM EST / 2017.12.13 1800 UTC
Wind: from the S (180 degrees) at 9 MPH (8 KT):0
Visibility: greater than 7 mile(s):0
Sky conditions: mostly cloudy
Temperature: 44 F (7 C)
Dew Point: 37 F (3 C)
Relative Humidity: 75%
Pressure (altimeter): 30.15 in. Hg (1021 hPa)
ob: LEPP 131800Z 18008KT 9999 FEW025 BKN058 07/03 Q1021
cycle: 18
Badajoz / Talavera La Real, Spain (LEBZ) 38-53N 006-49W 192M
Dec 13, 2017 - 01:00 PM EST / 2017.12.13 1800 UTC
Wind: Calm:0
Visibility: greater than 7 mile(s):0
Sky conditions: mostly cloudy
Temperature: 53 F (12 C)
Dew Point: 46 F (8 C)
Relative Humidity: 76%
Pressure (altimeter): 30.36 in. Hg (1028 hPa)
ob: LEBZ 131800Z 00000KT 9999 SCT040 BKN048 12/08 Q1028
cycle: 18
Albacete / Los Llanos, Spain (LEAB) 38-57N 001-51W 704M
Dec 13, 2017 - 01:00 PM EST / 2017.12.13 1800 UTC
Wind: Variable at 1 MPH (1 KT):0
Visibility: greater than 7 mile(s):0
Temperature: 39 F (4 C)
Dew Point: 32 F (0 C)
Relative Humidity: 75%
Pressure (altimeter): 30.30 in. Hg (1026 hPa)
ob: LEAB 131800Z VRB01KT CAVOK 04/M00 Q1026 NOSIG
cycle: 18



La informacion se graba a intervalos de 2 minutos, pero hay info grabada cada minuto. Optimizado para 800*600 y Color verdadero. Use el boton de

Use the RECARGA en su navegador para recojer la ulima info.

Clicar aquí para regarga diaria de medias/extremas del mes














Created by "Weather Display" software version 10.37S at this start time/date 2:23:17 01/12/2017

La estación de MeteoMurcia.com, publica sus datos en los siguientes proyectos:

Meteoclimatic www.awekas.at

W3Counter
Web Analytics